SIN weather

Singapore Changi Airport
Singapore, South East, Singapore

Public forecast

Using degrees Celsius for public forecast. Weather courtesy of forecast.io.

Current aviation weather report (METAR) for Singapore Changi Airport

Retrieved 2020/04/03 20:30 UTC (4 minutes ago):

WSSS 032030Z VRB02KT 9999 SCT016 BKN300 27/25 Q1009 NOSIG

Aviation forecast (TAF) for Singapore Changi Airport

Retrieved 2020/04/03 18:07 UTC (2 hours ago):

TAF WSSS 031700Z 0318/0500 03007KT 9999 FEW015 SCT020 TEMPO 0406/0409 3000 TSRA FEW012CB BKN015